Airfield :
LOGIN :

Register | Disclaimer

   EN    FR    IT 

 










Legend :    VFR   Marginal VFR   IFR   Intensive IFR   Very Intensive IFR
Visi :
Ceiling :
>= 8 km
>= 3000ft
5 to 8 km
1000 to 3000 ft
1500m to 5 km
500 to 1000 ft
800 to 1500m
200 to 500 ft
< 800m
< 200 ft
Symbols :   Thunderstorms  Fog  Heavy snow  Heavy precipitations  Wind > 20 kt
SIGMETs :     Misc.  Thunderstorms  Icing  Turbulence  Mountain Waves  Volcanic Ashes






- Airport Elevation : 1079 ft


ETIK - Illesheim Air Base

CURRENT METAR :
  • 011155Z 25017KT 9999 FEW021 OVC046 05/02 A3012 RMK AO2A PK WND 27027/24 DZB12E25 SLP210 P0000 60002 70007 T00480016 10052 20024 50002 FZRANO $

EXPIRED METARs :
  • 011125Z 26022G26KT 9999 FEW026 BKN034 OVC043 05/01 A3012 RMK AO2A DZB12E25 SLP210 FZRANO $
  • 011112Z 26020G25KT 9999 -DZ FEW026 OVC035 05/02 A3013 RMK AO2A DZB12 SLP214 FZRANO $
  • 011055Z 27016KT 9999 FEW024 OVC033 05/01 A3014 RMK AO2A PK WND 26028/11 SLP217 T00490014 FZRANO $
  • 010955Z AUTO 26019KT 9999 BKN022 BKN028 05/02 A3013 RMK AO2 DZE0855RAB0855E11DZB11E20 CIG 022V048 SLP214 P0002 T00450019 FZRANO
  • 010935Z AUTO 26017KT 9999 FEW017 SCT023 SCT028 BKN048 04/02 A3013 RMK AO2 DZE0855RAB0855E11DZB11E20 SLP214 FZRANO $
  • 010920Z 27017KT 9999 FEW003 SCT013 BKN019 OVC048 04/02 A3012 RMK AO2A DZE0855RAB0855E11DZB11E20 CIG 013V019 SLP210 FZRANO $
  • 010910Z 27016G23KT 9000 -RA BR FEW003 BKN013 OVC021 04/02 A3012 RMK AO2A DZE0855RAB0855 BKN V OVC SLP210 FZRANO $
  • 010855Z AUTO 26016KT 9999 -DZ FEW004 BKN015 BKN019 04/02 A3011 RMK AO2 RAB30E47DZB47 SLP207 P0000 60000 T00380023 53001 FZRANO $

TAF AMD TAF ETIK
Valid from the 01 at 08:00 until the 02 at 12:00 UTC


010840Z 0108/0212 25015KT 9999 BKN015 OVC035 620156 520006 QNH3007INS
TEMPO 0108/0109 8000 -RA
BECMG 0111/0112 26025G35KT 9999 BKN020 OVC040 620204 520006 QNH3009INS
BECMG 0118/0119 26020G35KT 9999 OVC015 620204 520006 QNH3010INS
BECMG 0120/0121 27020G35KT 6000 -SHRA OVC009 640204 520006 QNH3010INS
BECMG 0204/0205 27020G35KT 9999 NSW OVC005 620055 520006 QNH3007INS TX05/0114Z TN02/0206Z



MET'MAP, your aeronautical weather chart ! - Copyright ORBIFLY December 2007 - Disclaimer

ORBIFLY MET'MAP TEAM :

Programming & Development : Alexandra Zaïnal
Original concept : Baudouin d'Aumeries
Technical & hardware support : Manuel Goepfert
Assistance : Marc-Olivier Méhu




SOURCES & CREDITS :

   NOAA